Airport View

Enter AWOS ICAO identifier for current METAR.

ex. KFNL

KLKR 080530Z AUTO 00000KT 2SM BR FEW039 FEW045 SCT055 21/21 A3013 RMK AO2

8 Aug 2020 05:33

Frequency: 120.825

Phone: 803-286-6444

Other Area AWOS: KDCM - KUZA - KEQY - KFDW

TAF AMD KCLT 080259Z 0803/0906 21005KT P6SM SCT060 BKN250 FM080800 00000KT 6SM BR SCT003 BKN020 FM081300 VRB02KT P6SM BKN025 FM081600 20003KT P6SM SCT035 FM082100 22004KT P6SM SCT050